Time;durP1;ratioP1;P1;durP2;ratioP2;P2;SDS_P1;SDS_P2;PMS_P1;PMS_P2;Temp;Humidity;BMP_temperature;BMP_pressure;BME280_temperature;BME280_humidity;BME280_pressure;Samples;Min_cycle;Max_cycle;Signal;HPM_P1;HPM_P2
2020/12/20 00:01:44;;;;;;;24.57;17.62;;;;;;;11.34;55.27;101042.76;1777096;78;21129;-77
2020/12/20 00:04:12;;;;;;;26.65;18.27;;;;;;;11.34;55.25;101044.09;1762280;80;21737;-74
2020/12/20 00:06:41;;;;;;;24.82;17.80;;;;;;;11.33;55.21;101042.39;1761079;80;21156;-74
2020/12/20 00:09:10;;;;;;;25.45;17.60;;;;;;;11.33;55.17;101048.21;1758929;80;21214;-72
2020/12/20 00:11:41;;;;;;;24.05;17.20;;;;;;;11.32;55.19;101050.51;1758192;80;21174;-74
2020/12/20 00:14:26;;;;;;;22.60;16.82;;;;;;;11.31;55.19;101056.83;1779243;80;21188;-73
2020/12/20 00:17:01;;;;;;;24.60;17.85;;;;;;;11.31;55.19;101052.84;1770167;79;21150;-73
2020/12/20 00:19:29;;;;;;;25.65;18.37;;;;;;;11.29;55.15;101056.96;1754545;80;21520;-74
2020/12/20 00:22:05;;;;;;;24.37;17.75;;;;;;;11.27;55.15;101058.92;1759365;80;21354;-74
2020/12/20 00:24:45;;;;;;;21.95;14.98;;;;;;;11.30;55.15;101050.67;1740461;79;28142;-73
2020/12/20 00:27:13;;;;;;;23.62;16.65;;;;;;;11.26;55.13;101051.94;1758594;81;21139;-73
2020/12/20 00:29:41;;;;;;;23.50;15.95;;;;;;;11.27;55.16;101055.43;1765520;81;22562;-74
2020/12/20 00:32:11;;;;;;;20.37;14.85;;;;;;;11.26;55.10;101050.61;1767771;81;21169;-74
2020/12/20 00:34:38;;;;;;;23.67;15.55;;;;;;;11.26;55.10;101045.29;1767326;81;21166;-73
2020/12/20 00:37:06;;;;;;;21.57;15.83;;;;;;;11.27;55.08;101052.77;1749938;79;21193;-69
2020/12/20 00:39:34;;;;;;;23.42;15.23;;;;;;;11.27;55.05;101047.45;1745200;81;21589;-71
2020/12/20 00:42:03;;;;;;;21.12;15.50;;;;;;;11.26;55.05;101044.42;1764810;81;21333;-70
2020/12/20 00:44:30;;;;;;;20.62;14.78;;;;;;;11.26;55.02;101043.09;1754657;81;21231;-70
2020/12/20 00:46:59;;;;;;;21.42;14.80;;;;;;;11.25;54.99;101046.25;1733794;82;21190;-70
2020/12/20 00:49:27;;;;;;;20.80;15.00;;;;;;;11.25;55.03;101048.08;1723190;82;21591;-71
2020/12/20 00:51:58;;;;;;;20.60;14.15;;;;;;;11.25;54.97;101046.25;1730291;82;21162;-70
2020/12/20 00:54:26;;;;;;;20.52;14.87;;;;;;;11.25;54.98;101038.77;1705478;82;21205;-69
2020/12/20 00:56:54;;;;;;;22.07;13.20;;;;;;;11.24;54.96;101045.06;1734797;82;21693;-70
2020/12/20 00:59:22;;;;;;;22.90;15.30;;;;;;;11.24;54.95;101042.40;1736919;82;21169;-70
2020/12/20 01:01:51;;;;;;;18.52;13.48;;;;;;;11.24;54.93;101045.06;1733616;82;21194;-70
2020/12/20 01:04:18;;;;;;;21.57;14.18;;;;;;;11.23;54.93;101047.38;1734545;81;21156;-70
2020/12/20 01:06:46;;;;;;;19.20;14.30;;;;;;;11.23;54.90;101039.41;1735044;81;21374;-68
2020/12/20 01:09:26;;;;;;;21.05;14.23;;;;;;;11.27;54.90;101044.30;1782877;77;28176;-68
2020/12/20 01:11:56;;;;;;;20.02;13.95;;;;;;;11.24;54.85;101045.06;1758797;78;21163;-69
2020/12/20 01:14:26;;;;;;;19.67;13.98;;;;;;;11.22;54.84;101050.52;1753893;80;21328;-71
2020/12/20 01:16:55;;;;;;;17.57;12.88;;;;;;;11.21;54.83;101048.35;1753443;80;21149;-70
2020/12/20 01:19:25;;;;;;;20.02;13.85;;;;;;;11.21;54.86;101052.34;1752434;80;21175;-69
2020/12/20 01:21:52;;;;;;;17.30;11.90;;;;;;;11.21;54.84;101043.53;1759863;80;21136;-70
2020/12/20 01:24:19;;;;;;;16.15;12.13;;;;;;;11.20;54.81;101048.02;1755479;80;21237;-70
2020/12/20 01:26:49;;;;;;;17.87;13.03;;;;;;;11.20;54.80;101048.02;1761951;80;22078;-71
2020/12/20 01:29:17;;;;;;;17.77;12.82;;;;;;;11.20;54.81;101049.34;1774481;80;21168;-70
2020/12/20 01:31:45;;;;;;;17.10;11.83;;;;;;;11.19;54.79;101047.66;1753881;80;21625;-69
2020/12/20 01:34:17;;;;;;;17.77;13.00;;;;;;;11.20;54.79;101050.68;1753333;80;21232;-72
2020/12/20 01:36:45;;;;;;;17.10;11.90;;;;;;;11.19;54.77;101049.48;1742367;81;21150;-70
2020/12/20 01:39:15;;;;;;;17.65;12.78;;;;;;;11.18;54.77;101052.64;1767558;79;21580;-73
2020/12/20 01:41:43;;;;;;;17.00;11.65;;;;;;;11.19;54.75;101054.80;1777096;79;21183;-74
2020/12/20 01:44:13;;;;;;;17.42;12.05;;;;;;;11.18;54.74;101051.31;1762448;80;21164;-72
2020/12/20 01:46:43;;;;;;;16.50;11.60;;;;;;;11.18;54.73;101054.44;1753846;80;21187;-73
2020/12/20 01:49:12;;;;;;;17.07;11.53;;;;;;;11.18;54.76;101054.44;1767181;79;21551;-73
2020/12/20 01:51:40;;;;;;;16.50;11.53;;;;;;;11.18;54.73;101055.77;1790516;79;22364;-73
2020/12/20 01:54:10;;;;;;;16.80;11.80;;;;;;;11.17;54.71;101052.27;1776443;79;21646;-72
2020/12/20 01:56:38;;;;;;;17.90;12.30;;;;;;;11.17;54.72;101048.28;1738765;79;21156;-73
2020/12/20 01:59:08;;;;;;;16.07;11.25;;;;;;;11.16;54.68;101046.63;1766335;81;21186;-74
2020/12/20 02:01:37;;;;;;;15.93;10.85;;;;;;;11.16;54.68;101053.27;1770785;80;21184;-73
2020/12/20 02:04:06;;;;;;;18.12;11.85;;;;;;;11.16;54.72;101055.06;1767487;79;21710;-74
2020/12/20 02:06:38;;;;;;;16.77;11.93;;;;;;;11.15;54.73;101054.23;1766617;79;21187;-74
2020/12/20 02:09:07;;;;;;;18.07;11.15;;;;;;;11.15;54.70;101060.89;1768359;79;21159;-73
2020/12/20 02:11:34;;;;;;;17.02;11.93;;;;;;;11.16;54.68;101058.59;1766715;79;21129;-73
2020/12/20 02:14:04;;;;;;;15.93;11.03;;;;;;;11.16;54.67;101057.73;1766556;81;21658;-73
2020/12/20 02:16:41;;;;;;;14.50;10.48;;;;;;;11.20;54.69;101055.13;1787032;79;28201;-73
2020/12/20 02:19:08;;;;;;;15.88;11.35;;;;;;;11.15;54.66;101058.23;1767269;79;22188;-75
2020/12/20 02:21:36;;;;;;;16.75;12.18;;;;;;;11.15;54.66;101060.05;1773723;78;21360;-75
2020/12/20 02:24:06;;;;;;;15.23;10.45;;;;;;;11.14;54.63;101052.54;1766924;80;21143;-76
2020/12/20 02:26:39;;;;;;;19.57;12.28;;;;;;;11.14;54.66;101057.86;1778117;80;21200;-74
2020/12/20 02:29:09;;;;;;;15.45;10.78;;;;;;;11.14;54.64;101059.69;1759161;80;21171;-75
2020/12/20 02:31:36;;;;;;;16.12;10.68;;;;;;;11.14;54.64;101063.68;1779201;80;21119;-76
2020/12/20 02:34:05;;;;;;;15.90;11.20;;;;;;;11.13;54.63;101054.87;1779513;78;21652;-76
2020/12/20 02:36:33;;;;;;;15.55;11.38;;;;;;;11.13;54.63;101061.52;1763722;80;21143;-75
2020/12/20 02:39:04;;;;;;;14.95;10.48;;;;;;;11.12;54.65;101055.83;1786505;79;21554;-75
2020/12/20 02:41:41;;;;;;;15.20;11.22;;;;;;;11.18;54.59;101047.79;1755202;79;28318;-75
2020/12/20 02:44:09;;;;;;;15.72;11.68;;;;;;;11.13;54.57;101056.20;1722351;80;21178;-74
2020/12/20 02:46:39;;;;;;;16.35;11.73;;;;;;;11.14;54.56;101052.54;1725905;82;21181;-74
2020/12/20 02:49:08;;;;;;;15.03;10.18;;;;;;;11.13;54.57;101057.53;1737628;81;21155;-75
2020/12/20 02:51:40;;;;;;;14.28;9.90;;;;;;;11.14;54.56;101065.84;1741587;81;21248;-74
2020/12/20 02:54:09;;;;;;;15.93;10.58;;;;;;;11.13;54.54;101065.51;1729499;81;21171;-74
2020/12/20 02:56:45;;;;;;;16.35;11.18;;;;;;;11.13;54.54;101065.51;1749786;80;21162;-75
2020/12/20 02:59:23;;;;;;;16.48;11.22;;;;;;;11.16;54.57;101059.05;1810550;79;28170;-75
2020/12/20 03:01:51;;;;;;;15.85;12.03;;;;;;;11.12;54.55;101067.80;1775488;79;21178;-75
2020/12/20 03:04:18;;;;;;;14.45;10.85;;;;;;;11.12;54.54;101070.46;1796371;79;21795;-76
2020/12/20 03:06:46;;;;;;;14.38;10.20;;;;;;;11.12;54.54;101066.97;1786735;79;21128;-73
2020/12/20 03:09:15;;;;;;;15.70;10.78;;;;;;;11.12;54.55;101060.32;1774379;79;21163;-73
2020/12/20 03:11:42;;;;;;;16.87;11.28;;;;;;;11.12;54.56;101064.31;1788919;79;21665;-75
2020/12/20 03:14:10;;;;;;;16.15;10.78;;;;;;;11.12;54.55;101064.31;1794699;79;21114;-75
2020/12/20 03:16:39;;;;;;;16.42;10.60;;;;;;;11.12;54.51;101064.31;1796287;79;21606;-73
2020/12/20 03:19:07;;;;;;;15.28;10.58;;;;;;;11.12;54.54;101067.80;1754740;79;21205;-74
2020/12/20 03:21:34;;;;;;;13.25;9.80;;;;;;;11.12;54.49;101068.30;1802736;79;21092;-70
2020/12/20 03:24:18;;;;;;;17.20;10.78;;;;;;;11.15;54.50;101075.52;1804742;79;28505;-75
2020/12/20 03:26:51;;;;;;;15.40;10.40;;;;;;;11.12;54.49;101080.27;1767303;80;21178;-74
2020/12/20 03:29:41;;;;;;;12.98;8.95;;;;;;;11.14;54.54;101083.12;1797749;79;28808;-75
2020/12/20 03:32:16;;;;;;;15.78;10.95;;;;;;;11.10;54.51;101087.55;1700862;80;21160;-75
2020/12/20 03:34:46;;;;;;;13.85;9.80;;;;;;;11.09;54.52;101089.38;1765453;79;21805;-74
2020/12/20 03:37:15;;;;;;;15.38;10.48;;;;;;;11.09;54.52;101099.18;1747771;80;21611;-72
2020/12/20 03:39:53;;;;;;;18.70;11.22;;;;;;;11.07;54.53;101091.33;1783952;80;21208;-74
2020/12/20 03:42:21;;;;;;;13.98;9.65;;;;;;;11.07;54.51;101093.99;1765931;80;21159;-72
2020/12/20 03:44:49;;;;;;;14.00;9.78;;;;;;;11.09;54.52;101101.84;1767508;80;21161;-73
2020/12/20 03:47:21;;;;;;;14.13;10.20;;;;;;;11.08;54.51;101102.30;1767679;80;21330;-72
2020/12/20 03:49:48;;;;;;;14.95;10.18;;;;;;;11.09;54.50;101104.50;1748799;79;21183;-73
2020/12/20 03:52:17;;;;;;;14.03;10.08;;;;;;;11.09;54.48;101106.66;1783515;80;21150;-72
2020/12/20 03:55:04;;;;;;;16.12;10.93;;;;;;;11.09;54.49;101101.84;1760747;79;21210;-73
2020/12/20 03:57:31;;;;;;;16.55;10.58;;;;;;;11.07;54.47;101107.29;1771825;80;21178;-73
2020/12/20 03:59:59;;;;;;;13.10;9.90;;;;;;;11.07;54.44;101109.95;1783695;80;21206;-72
2020/12/20 04:02:27;;;;;;;16.30;10.95;;;;;;;11.09;54.44;101114.64;1770572;80;21187;-75
2020/12/20 04:04:54;;;;;;;14.33;10.08;;;;;;;11.08;54.47;101117.43;1786312;80;22029;-75
2020/12/20 04:07:22;;;;;;;13.93;10.78;;;;;;;11.08;54.46;101112.11;1793873;80;21224;-75
2020/12/20 04:09:51;;;;;;;13.05;9.53;;;;;;;11.08;54.44;101115.60;1784312;79;21171;-74
2020/12/20 04:12:23;;;;;;;12.85;9.90;;;;;;;11.08;54.44;101118.27;1772774;79;22119;-74
2020/12/20 04:14:51;;;;;;;15.45;11.03;;;;;;;11.10;54.43;101128.77;1787085;79;21195;-75
2020/12/20 04:17:18;;;;;;;15.45;10.72;;;;;;;11.09;54.41;101131.92;1795596;79;21634;-73
2020/12/20 04:19:46;;;;;;;13.15;9.95;;;;;;;11.09;54.42;101131.92;1784844;79;21678;-75
2020/12/20 04:22:15;;;;;;;15.40;10.63;;;;;;;11.08;54.42;101130.23;1784782;79;21186;-74
2020/12/20 04:25:01;;;;;;;13.38;9.70;;;;;;;11.09;54.44;101142.56;1783190;79;21380;-72
2020/12/20 04:27:30;;;;;;;14.00;10.00;;;;;;;11.08;54.43;101143.53;1762467;80;21731;-72
2020/12/20 04:30:00;;;;;;;14.05;10.05;;;;;;;11.08;54.42;101144.02;1738670;81;21263;-73
2020/12/20 04:32:27;;;;;;;13.88;10.15;;;;;;;11.08;54.45;101148.84;1716486;81;21118;-72
2020/12/20 04:34:55;;;;;;;13.30;9.93;;;;;;;11.08;54.42;101149.34;1725110;81;21148;-73
2020/12/20 04:37:23;;;;;;;17.75;11.28;;;;;;;11.08;54.43;101152.83;1732106;82;22301;-72
2020/12/20 04:39:55;;;;;;;13.10;9.35;;;;;;;11.08;54.38;101149.34;1752040;81;21183;-73
2020/12/20 04:42:25;;;;;;;13.43;10.05;;;;;;;11.09;54.38;101159.02;1749093;81;21181;-72
2020/12/20 04:44:52;;;;;;;13.25;9.28;;;;;;;11.08;54.41;101159.48;1749590;81;21187;-72
2020/12/20 04:47:22;;;;;;;12.07;9.40;;;;;;;11.08;54.38;101162.14;1749345;81;21184;-72
2020/12/20 04:49:52;;;;;;;13.58;9.98;;;;;;;11.08;54.39;101158.16;1736365;81;21244;-72
2020/12/20 04:52:21;;;;;;;12.93;9.63;;;;;;;11.07;54.38;101159.15;1721121;81;21205;-73
2020/12/20 04:54:49;;;;;;;13.30;9.63;;;;;;;11.07;54.39;101164.47;1727999;80;21134;-73
2020/12/20 04:57:34;;;;;;;13.05;8.83;;;;;;;11.11;54.38;101157.06;1740665;79;28316;-73
2020/12/20 05:00:06;;;;;;;11.88;9.20;;;;;;;11.08;54.37;101160.81;1738594;82;21605;-73
2020/12/20 05:02:33;;;;;;;10.95;7.97;;;;;;;11.07;54.38;101154.30;1702709;82;21443;-72
2020/12/20 05:05:01;;;;;;;12.78;9.40;;;;;;;11.07;54.36;101155.16;1695109;82;21903;-74
2020/12/20 05:08:38;;;;;;;12.00;8.55;;;;;;;11.11;54.36;101152.58;1813357;77;28439;-72
2020/12/20 05:11:06;;;;;;;14.80;10.20;;;;;;;11.05;54.37;101162.44;1817444;78;21182;-74
2020/12/20 05:13:39;;;;;;;11.75;8.93;;;;;;;11.05;54.40;101162.44;1803629;78;23044;-73
2020/12/20 05:16:14;;;;;;;13.65;9.08;;;;;;;11.07;54.36;101156.95;1777339;78;21168;-73
2020/12/20 05:18:48;;;;;;;13.53;9.73;;;;;;;11.07;54.35;101159.15;1761408;78;21155;-72
2020/12/20 05:21:27;;;;;;;13.58;9.58;;;;;;;11.05;54.34;101162.44;1783685;78;21107;-73
2020/12/20 05:23:56;;;;;;;13.13;8.88;;;;;;;11.05;54.38;101159.77;1776965;78;21130;-71
2020/12/20 05:26:31;;;;;;;12.35;8.78;;;;;;;11.05;54.35;101155.79;1769319;78;21283;-72
2020/12/20 05:29:11;;;;;;;11.95;8.38;;;;;;;11.05;54.38;101158.91;1791192;78;21119;-71
2020/12/20 05:31:41;;;;;;;12.98;9.15;;;;;;;11.04;54.38;101156.75;1780065;78;21595;-72
2020/12/20 05:34:13;;;;;;;11.00;8.73;;;;;;;11.02;54.39;101162.20;1782146;78;21548;-71
2020/12/20 05:36:42;;;;;;;13.38;9.63;;;;;;;11.02;54.37;101169.34;1777811;78;21199;-72
2020/12/20 05:39:37;;;;;;;12.90;8.83;;;;;;;11.07;54.38;101172.91;1770817;79;28261;-72
2020/12/20 05:42:06;;;;;;;11.78;8.48;;;;;;;11.03;54.38;101179.02;1710271;80;21663;-73
2020/12/20 05:44:35;;;;;;;11.15;8.68;;;;;;;11.02;54.36;101178.16;1715417;80;21373;-72
2020/12/20 05:47:05;;;;;;;12.20;8.65;;;;;;;11.02;54.34;101178.16;1706997;82;21213;-73
2020/12/20 05:49:37;;;;;;;11.05;8.83;;;;;;;11.03;54.36;101179.02;1744892;81;21155;-72
2020/12/20 05:52:12;;;;;;;11.93;8.18;;;;;;;11.02;54.36;101187.46;1744840;81;21590;-72
2020/12/20 05:54:40;;;;;;;11.38;8.70;;;;;;;11.04;54.35;101183.84;1737137;81;21583;-72
2020/12/20 05:57:14;;;;;;;12.20;9.00;;;;;;;11.02;54.34;101188.79;1738297;81;21375;-72
2020/12/20 05:59:44;;;;;;;11.60;8.38;;;;;;;11.04;54.33;101197.97;1738498;81;21191;-73
2020/12/20 06:02:11;;;;;;;11.55;8.38;;;;;;;11.03;54.32;101192.31;1729164;81;21159;-73
2020/12/20 06:04:40;;;;;;;13.18;8.78;;;;;;;11.04;54.33;101201.95;1743923;81;21171;-72
2020/12/20 06:07:08;;;;;;;11.95;8.75;;;;;;;11.04;54.31;101191.32;1745727;81;21131;-71
2020/12/20 06:09:59;;;;;;;11.70;8.73;;;;;;;11.05;54.31;101201.46;1738097;81;23433;-73
2020/12/20 06:12:31;;;;;;;11.00;8.18;;;;;;;11.04;54.33;101196.64;1736010;80;21174;-75
2020/12/20 06:14:59;;;;;;;11.38;8.58;;;;;;;11.02;54.30;101197.27;1736188;81;21163;-73
2020/12/20 06:17:27;;;;;;;11.53;8.68;;;;;;;11.02;54.32;101198.59;1750665;81;21172;-74
2020/12/20 06:20:04;;;;;;;13.00;8.95;;;;;;;11.02;54.30;101200.75;1736906;81;21183;-73
2020/12/20 06:22:35;;;;;;;11.50;8.80;;;;;;;11.02;54.30;101202.09;1736980;81;21196;-73
2020/12/20 06:25:05;;;;;;;11.93;8.23;;;;;;;11.04;54.27;101213.09;1743749;81;21632;-73
2020/12/20 06:27:34;;;;;;;11.45;8.90;;;;;;;11.03;54.27;101216.25;1739823;81;21613;-72
2020/12/20 06:30:05;;;;;;;10.98;8.40;;;;;;;11.04;54.27;101217.08;1736798;81;21210;-74
2020/12/20 06:32:42;;;;;;;12.00;8.73;;;;;;;11.04;54.25;101227.22;1733699;81;21178;-74
2020/12/20 06:35:24;;;;;;;12.60;9.55;;;;;;;11.04;54.26;101227.72;1749007;81;22265;-73
2020/12/20 06:37:52;;;;;;;11.28;8.60;;;;;;;11.04;54.24;101229.87;1722836;81;21269;-73
2020/12/20 06:40:31;;;;;;;14.68;9.65;;;;;;;11.02;54.26;101231.34;1696951;82;21616;-72
2020/12/20 06:43:08;;;;;;;13.67;11.17;;;;;;;11.07;54.24;101237.60;1793476;79;27923;-72
2020/12/20 06:45:42;;;;;;;12.10;8.93;;;;;;;11.27;53.93;101225.69;1798822;79;21149;-72
2020/12/20 06:48:09;;;;;;;12.90;9.55;;;;;;;11.50;53.33;101231.13;1789375;79;21273;-73
2020/12/20 06:50:43;;;;;;;13.20;9.83;;;;;;;11.42;53.38;101226.98;1809189;79;21598;-73
2020/12/20 06:53:11;;;;;;;;;;;;;;;11.35;53.49;101225.34;1791023;79;21196;-73
2020/12/20 06:55:40;;;;;;;12.45;9.43;;;;;;;11.31;53.58;101226.59;1792644;79;20275;-72
2020/12/20 06:58:13;;;;;;;12.98;10.00;;;;;;;11.21;53.76;101226.58;1775503;79;21161;-73
2020/12/20 07:00:54;;;;;;;12.13;10.05;;;;;;;11.15;53.79;101224.96;1785859;79;22178;-72
2020/12/20 07:06:17;;;;;;;14.07;10.03;;;;;;;11.21;53.85;101227.07;1795770;79;28235;-72
2020/12/20 07:09:04;;;;;;;13.60;9.40;;;;;;;11.15;53.85;101234.27;1776531;78;21143;-72
2020/12/20 07:11:30;;;;;;;13.58;9.88;;;;;;;11.13;53.86;101229.58;1811563;78;21421;-73
2020/12/20 07:13:57;;;;;;;14.55;10.08;;;;;;;11.12;53.89;101234.53;1813502;78;21962;-75
2020/12/20 07:16:38;;;;;;;13.10;9.58;;;;;;;11.10;53.95;101242.63;1800732;78;21157;-73
2020/12/20 07:19:07;;;;;;;13.72;10.65;;;;;;;11.10;53.95;101245.30;1778061;78;21125;-73
2020/12/20 07:21:58;;;;;;;12.15;9.70;;;;;;;11.10;53.96;101249.28;1799182;78;21145;-73
2020/12/20 07:24:33;;;;;;;13.03;9.58;;;;;;;11.10;53.97;101251.11;1762561;78;21604;-73
2020/12/20 07:27:04;;;;;;;12.58;9.48;;;;;;;11.08;53.96;101248.58;1778012;80;21175;-73
2020/12/20 07:29:33;;;;;;;12.33;9.45;;;;;;;11.08;53.99;101249.08;1788929;80;21142;-73
2020/12/20 07:32:03;;;;;;;12.15;8.20;;;;;;;11.07;54.01;101250.90;1790851;77;21170;-73
2020/12/20 07:34:32;;;;;;;12.18;9.35;;;;;;;11.06;53.99;101247.88;1764171;80;21195;-73
2020/12/20 07:36:59;;;;;;;14.33;10.13;;;;;;;11.07;54.01;101247.37;1795424;77;21201;-73
2020/12/20 07:39:27;;;;;;;13.00;9.60;;;;;;;11.08;53.99;101252.56;1785457;78;21480;-73
2020/12/20 07:41:59;;;;;;;11.38;8.78;;;;;;;11.08;53.99;101250.41;1821756;77;21602;-73
2020/12/20 07:44:28;;;;;;;12.93;10.20;;;;;;;11.08;53.96;101253.06;1819339;77;21147;-74
2020/12/20 07:46:55;;;;;;;13.95;9.68;;;;;;;11.08;53.99;101263.70;1811894;78;21117;-73
2020/12/20 07:49:22;;;;;;;14.40;10.25;;;;;;;11.08;53.99;101259.71;1779334;78;21194;-72
2020/12/20 07:51:49;;;;;;;14.30;10.28;;;;;;;11.08;53.96;101264.53;1820324;77;21157;-73
2020/12/20 07:54:17;;;;;;;13.55;10.13;;;;;;;11.09;53.94;101264.91;1818164;78;21173;-72
2020/12/20 07:56:46;;;;;;;13.72;10.43;;;;;;;11.09;53.97;101266.23;1764648;78;21240;-74
2020/12/20 07:59:17;;;;;;;14.68;10.75;;;;;;;11.10;53.96;101257.76;1802269;77;21155;-74
2020/12/20 08:01:47;;;;;;;13.95;10.28;;;;;;;11.10;53.96;101261.25;1809362;77;22705;-74
2020/12/20 08:04:19;;;;;;;14.83;11.15;;;;;;;11.11;53.92;101258.13;1778040;79;21195;-74
2020/12/20 08:06:49;;;;;;;13.65;9.45;;;;;;;11.12;53.92;101260.63;1749897;80;21159;-73
2020/12/20 08:09:22;;;;;;;12.93;10.43;;;;;;;11.12;53.89;101255.80;1750561;80;21196;-75
2020/12/20 08:11:51;;;;;;;14.30;10.45;;;;;;;11.12;53.88;101253.98;1727747;81;21181;-74
2020/12/20 08:14:19;;;;;;;13.35;10.05;;;;;;;11.12;53.88;101256.64;1701138;82;22165;-75
2020/12/20 08:16:51;;;;;;;13.38;10.20;;;;;;;11.12;53.90;101261.95;1735333;81;21195;-76
2020/12/20 08:19:27;;;;;;;13.75;10.03;;;;;;;11.13;53.87;101259.66;1735533;81;21193;-76
2020/12/20 08:22:14;;;;;;;13.65;10.55;;;;;;;11.13;53.87;101260.16;1753595;81;21178;-76
2020/12/20 08:24:45;;;;;;;12.50;9.55;;;;;;;11.14;53.86;101267.98;1740798;81;21635;-76
2020/12/20 08:27:23;;;;;;;13.30;9.58;;;;;;;11.14;53.84;101269.81;1743231;81;21331;-73
2020/12/20 08:29:53;;;;;;;11.65;8.88;;;;;;;11.13;53.84;101266.81;1744824;81;21647;-74
2020/12/20 08:32:22;;;;;;;14.70;10.50;;;;;;;11.15;53.79;101268.84;1761524;80;21166;-74
2020/12/20 08:34:49;;;;;;;13.60;9.83;;;;;;;11.14;53.82;101271.14;1735687;81;21188;-74
2020/12/20 08:37:22;;;;;;;13.80;9.45;;;;;;;11.15;53.81;101278.98;1756773;80;21235;-75
2020/12/20 08:39:50;;;;;;;12.45;9.60;;;;;;;11.15;53.81;101272.34;1715738;82;23444;-73
2020/12/20 08:42:22;;;;;;;13.50;10.25;;;;;;;11.15;53.80;101280.31;1749770;80;21231;-75
2020/12/20 08:44:50;;;;;;;14.23;10.93;;;;;;;11.16;53.77;101282.48;1714896;83;21657;-73
2020/12/20 08:47:19;;;;;;;13.00;9.80;;;;;;;11.16;53.73;101284.68;1753803;80;21152;-74
2020/12/20 08:49:59;;;;;;;13.80;10.32;;;;;;;11.16;53.74;101277.16;1757055;80;21091;-71
2020/12/20 08:52:29;;;;;;;13.00;10.28;;;;;;;11.17;53.71;101279.70;1764785;80;21373;-74
2020/12/20 08:55:01;;;;;;;13.58;9.85;;;;;;;11.17;53.73;101287.67;1753883;80;21172;-73
2020/12/20 08:57:32;;;;;;;11.53;9.68;;;;;;;11.18;54.36;101285.38;1753889;80;21611;-72
2020/12/20 09:00:15;;;;;;;11.45;9.20;;;;;;;11.19;54.49;101284.39;1754590;80;22268;-73
2020/12/20 09:02:43;;;;;;;12.60;9.58;;;;;;;11.19;54.57;101293.70;1754004;80;21122;-72
2020/12/20 09:05:15;;;;;;;12.00;8.90;;;;;;;11.20;54.58;101288.75;1754274;80;21340;-72
2020/12/20 09:07:47;;;;;;;11.68;8.35;;;;;;;11.21;54.59;101284.27;1753678;80;21212;-72
2020/12/20 09:10:22;;;;;;;12.47;9.33;;;;;;;11.23;54.56;101290.78;1753672;80;21199;-74
2020/12/20 09:12:55;;;;;;;12.60;8.78;;;;;;;11.23;54.54;101280.14;1757572;80;21163;-71
2020/12/20 09:15:26;;;;;;;12.07;9.20;;;;;;;11.25;54.53;101279.52;1756783;80;21529;-71
2020/12/20 09:17:53;;;;;;;12.65;9.53;;;;;;;11.24;54.47;101273.34;1752828;80;21344;-71
2020/12/20 09:20:22;;;;;;;13.50;10.15;;;;;;;11.25;54.45;101280.35;1755943;80;21201;-71
2020/12/20 09:22:57;;;;;;;12.82;10.25;;;;;;;11.26;54.44;101276.73;1753862;80;21181;-72
2020/12/20 09:25:44;;;;;;;12.55;9.53;;;;;;;11.27;54.41;101279.73;1756708;80;21177;-71
2020/12/20 09:28:19;;;;;;;11.33;8.05;;;;;;;11.28;54.38;101276.56;1735431;81;21107;-72
2020/12/20 09:30:50;;;;;;;12.28;8.53;;;;;;;11.27;54.36;101278.40;1739045;81;21352;-72
2020/12/20 09:33:32;;;;;;;10.90;9.13;;;;;;;11.28;54.36;101278.77;1735948;82;21176;-74
2020/12/20 09:36:15;;;;;;;14.83;10.70;;;;;;;11.28;54.34;101281.89;1753994;80;21667;-71
2020/12/20 09:38:48;;;;;;;12.28;9.13;;;;;;;11.27;54.33;101281.06;1740507;81;21587;-73
2020/12/20 09:41:19;;;;;;;12.25;9.38;;;;;;;11.27;54.30;101287.70;1735290;81;21073;-74
2020/12/20 09:43:47;;;;;;;11.85;8.70;;;;;;;11.27;54.30;101283.72;1754045;80;21431;-73
2020/12/20 09:46:35;;;;;;;13.88;10.15;;;;;;;11.28;54.29;101277.90;1726439;81;21159;-78
2020/12/20 09:49:03;;;;;;;11.15;8.50;;;;;;;11.29;54.28;101278.27;1716277;81;21136;-72
2020/12/20 09:51:33;;;;;;;12.68;9.33;;;;;;;11.30;54.28;101278.61;1736745;81;21138;-75
2020/12/20 09:54:00;;;;;;;12.65;8.98;;;;;;;11.29;54.27;101280.93;1734951;81;21414;-75
2020/12/20 09:56:29;;;;;;;12.03;8.88;;;;;;;11.32;54.25;101283.30;1737121;80;21344;-74
2020/12/20 09:58:56;;;;;;;12.10;8.85;;;;;;;11.34;54.22;101280.05;1747489;80;21171;-72
2020/12/20 10:01:27;;;;;;;13.08;10.25;;;;;;;11.34;54.17;101278.22;1761185;80;21183;-72
2020/12/20 10:03:55;;;;;;;11.65;8.50;;;;;;;11.35;54.15;101277.23;1734952;81;21145;-73
2020/12/20 10:06:22;;;;;;;12.30;8.95;;;;;;;11.36;54.13;101274.09;1750644;80;21247;-72
2020/12/20 10:08:49;;;;;;;11.05;9.08;;;;;;;11.37;54.08;101273.94;1757926;80;21378;-72
2020/12/20 10:11:18;;;;;;;11.73;9.50;;;;;;;11.39;54.05;101271.14;1737197;81;21654;-71
2020/12/20 10:13:46;;;;;;;12.05;9.40;;;;;;;11.40;54.05;101271.02;1768278;80;21639;-73
2020/12/20 10:16:20;;;;;;;12.30;9.45;;;;;;;11.40;54.03;101268.85;1747279;80;21599;-73
2020/12/20 10:18:47;;;;;;;11.97;9.58;;;;;;;11.41;53.97;101278.04;1784083;79;21663;-71
2020/12/20 10:21:17;;;;;;;12.25;9.70;;;;;;;11.42;53.95;101274.88;1781047;79;21371;-72
2020/12/20 10:23:48;;;;;;;12.33;9.88;;;;;;;11.43;53.93;101271.72;1746492;81;21546;-71
2020/12/20 10:26:15;;;;;;;12.68;9.93;;;;;;;11.43;53.88;101271.22;1722773;80;21164;-72
2020/12/20 10:28:44;;;;;;;13.18;9.98;;;;;;;11.44;53.89;101269.43;1778110;79;21152;-73
2020/12/20 10:31:12;;;;;;;14.20;10.35;;;;;;;11.44;53.85;101273.42;1763069;80;21132;-71
2020/12/20 10:33:40;;;;;;;11.18;9.05;;;;;;;11.44;53.85;101272.92;1708197;81;22125;-74
2020/12/20 10:36:08;;;;;;;11.63;8.30;;;;;;;11.45;56.88;101218.70;1763657;80;21744;-78
2020/12/20 10:38:35;;;;;;;10.00;8.10;;;;;;;11.67;66.11;101214.13;1770858;80;21131;-80
2020/12/20 10:41:03;;;;;;;10.88;8.18;;;;;;;12.09;69.55;101211.19;1763531;80;21135;-75
2020/12/20 10:43:30;;;;;;;10.72;8.33;;;;;;;12.46;71.25;101212.61;1763626;80;21212;-77
2020/12/20 10:45:57;;;;;;;10.98;7.90;;;;;;;12.86;72.16;101203.46;1766845;80;21214;-75
2020/12/20 10:48:28;;;;;;;14.93;8.18;;;;;;;13.31;72.30;101199.20;1764496;80;21175;-78
2020/12/20 10:50:58;;;;;;;11.97;7.87;;;;;;;13.67;72.18;101201.38;1772177;80;21210;-71
2020/12/20 10:53:26;;;;;;;14.18;9.05;;;;;;;13.96;70.93;101266.62;1783118;79;21125;-67
2020/12/20 10:55:54;;;;;;;10.75;8.35;;;;;;;14.14;68.08;101265.26;1749454;80;21207;-68
2020/12/20 10:58:23;;;;;;;11.75;8.75;;;;;;;14.22;65.68;101264.48;1763302;79;21177;-68
2020/12/20 11:00:50;;;;;;;10.80;8.23;;;;;;;14.25;63.82;101263.33;1778639;80;21159;-68
2020/12/20 11:03:18;;;;;;;14.90;11.20;;;;;;;14.23;62.59;101266.66;1748216;80;21272;-73
2020/12/20 11:05:46;;;;;;;14.60;11.18;;;;;;;14.25;66.07;101266.83;1752863;81;21142;-73
2020/12/20 11:08:13;;;;;;;17.52;11.80;;;;;;;14.49;66.00;101260.84;1745325;82;21171;-76
2020/12/20 11:10:41;;;;;;;13.85;11.73;;;;;;;14.73;63.94;101267.37;1744688;80;21496;-71
2020/12/20 11:13:08;;;;;;;13.30;9.43;;;;;;;14.79;62.13;101268.58;1734928;82;21177;-63
2020/12/20 11:15:36;;;;;;;16.27;9.20;;;;;;;14.87;65.34;101223.13;1771420;80;22209;-69
2020/12/20 11:18:03;;;;;;;19.85;10.18;;;;;;;15.24;66.67;101224.61;1746267;81;21182;-67
2020/12/20 11:20:30;;;;;;;12.95;9.20;;;;;;;15.72;66.61;101219.89;1729240;82;21622;-66
2020/12/20 11:23:04;;;;;;;12.80;9.10;;;;;;;16.32;65.80;101225.92;1776788;80;21276;-66
2020/12/20 11:25:27;;;;;;;10.23;8.45;;;;;;;16.91;64.80;101228.34;1752913;80;21159;-63
2020/12/20 11:27:54;;;;;;;10.55;8.35;;;;;;;17.33;63.84;101224.98;1774520;80;21145;-66
2020/12/20 11:30:22;;;;;;;11.63;8.33;;;;;;;17.69;62.88;101226.09;1777005;80;21136;-65
2020/12/20 11:32:49;;;;;;;14.47;9.20;;;;;;;17.99;61.95;101222.19;1759050;80;21182;-64
2020/12/20 11:35:17;;;;;;;16.45;9.45;;;;;;;18.28;61.26;101221.42;1772566;80;21195;-67